• Join FlightAware (Why Join?)
  • Login
  • US Flag 
02:59PM EDT


 

Airport Tracker/Info


-or-


 

Live Flight TrackerFlight Track Log ✈ N865JM ✈ 18-Oct-2013 ✈ KOPF - KAPA

Flight Track Log - Related Links

Times and Time Zones

All times are in EDT time to prevent confusion due to time zone crossing. See the N865JM flight status page for this flight to view local times or setup timezone preferences in your user account.

Time Position Orientation Groundspeed Altitude Reporting Facility
EDT Latitude Longitude Course Direction KTS MPH feet Rate Location/Type
04:03PM 25.8086 -80.1803 63° Northeast 226 260 4,600  Level Miami Center
04:04PM 25.8242 -80.1461 63° Northeast 262 302 6,000 2,400 Climbing Miami Center
04:04PM 25.8617 -80.1469 359° North 277 319 7,000 960 Climbing Miami Center
04:05PM 25.8967 -80.1686 331° Northwest 301 346 7,000 60 Level Miami Center
04:05PM 25.9256 -80.1903 326° Northwest 291 335 7,100 1,080 Climbing Miami Center
04:06PM 25.9494 -80.2394 298° West 276 318 8,100 2,160 Climbing Miami Center
04:06PM 25.9717 -80.2725 307° West 291 335 9,300 2,580 Climbing Miami Center
04:07PM 25.9914 -80.3147 297° West 294 338 10,800 2,700 Climbing Miami Center
04:07PM 26.0094 -80.3453 303° West 297 342 12,000 2,520 Climbing Miami Center
04:08PM 26.0375 -80.4014 299° West 302 348 13,400 2,400 Climbing Miami Center
04:08PM 26.0553 -80.4367 299° West 315 362 14,400 1,800 Climbing Miami Center
04:09PM 26.0992 -80.5236 299° West 338 389 16,100 2,040 Climbing Miami Center
04:10PM 26.1469 -80.6153 300° West 344 396 18,500 1,920 Climbing Miami Center
04:11PM 26.1947 -80.7094 300° West 344 396 20,000 1,500 Climbing Miami Center
04:12PM 26.2506 -80.8039 303° West 356 410 21,600 1,500 Climbing Miami Center
04:13PM 26.3258 -80.8806 318° Northwest 362 417 23,000 1,500 Climbing Miami Center
04:14PM 26.4031 -80.9597 317° Northwest 379 436 24,700 1,500 Climbing Miami Center
04:15PM 26.4842 -81.0392 319° Northwest 384 442 26,000 1,140 Climbing Miami Center
04:17PM 26.5903 -81.1403 318° Northwest  Level FlightAware Approximate
04:17PM 26.6422 -81.2028 318° Northwest 392 451 28,200  Level Miami Center
04:18PM 26.7275 -81.2894 318° Northwest 397 457 29,200 900 Climbing Miami Center
04:19PM 26.7994 -81.3853 310° West 404 465 30,100 900 Climbing Miami Center
04:20PM 26.8317 -81.4936 288° West 398 458 31,100 900 Climbing Miami Center
04:21PM 26.8675 -81.6114 289° West 398 458 32,000 720 Climbing Miami Center
04:22PM 26.8989 -81.7314 286° West 403 464 32,600 600 Climbing Miami Center
04:23PM 26.9344 -81.8539 288° West 409 471 33,300 660 Climbing Miami Center
04:24PM 26.9758 -81.9839 290° West 409 471 34,000 720 Climbing Miami Center
04:25PM 27.0075 -82.0947 288° West 409 471 34,800 720 Climbing Miami Center
04:26PM 27.0406 -82.2128 287° West 409 471 35,500 600 Climbing Miami Center
04:27PM 27.0817 -82.3453 289° West 409 471 36,000 240 Climbing Miami Center
04:28PM 27.1167 -82.4681 288° West 409 471 36,000  Level Miami Center
04:29PM 27.1511 -82.5958 287° West 409 471 36,000  Level Miami Center
04:30PM 27.1881 -82.7167 289° West 414 476 36,000  Level Miami Center
04:31PM 27.2225 -82.8419 287° West 414 476 36,000  Level Miami Center
04:32PM 27.2572 -82.9606 288° West 414 476 36,000  Level Miami Center
04:33PM 27.2917 -83.0839 287° West 409 471 36,000  Level Miami Center
04:34PM 27.3258 -83.2072 287° West 409 471 36,000  Level Miami Center
04:35PM 27.3603 -83.3281 288° West 409 471 36,000  Level Miami Center
04:36PM 27.3942 -83.4517 287° West 409 471 36,000  Level Miami Center
04:37PM 27.4303 -83.5728 289° West 409 471 36,000  Level Miami Center
04:38PM 27.4581 -83.6914 285° West 409 471 36,000  Level Miami Center
04:39PM 27.4939 -83.8150 288° West 409 471 36,000  Level Miami Center
04:40PM 27.5278 -83.9342 288° West 409 471 36,000  Level Miami Center
04:41PM 27.5594 -84.0553 286° West 409 471 36,000  Level Miami Center
04:42PM 27.5972 -84.1747 290° West 409 471 36,000  Level Miami Center
04:43PM 27.6264 -84.2961 285° West 409 471 36,000  Level Miami Center
04:44PM 27.6575 -84.4175 286° West 409 471 36,000  Level Miami Center
04:45PM 27.6906 -84.5414 287° West 409 471 36,000  Level Miami Center
04:46PM 27.7300 -84.6636 290° West 409 471 36,000  Level Miami Center
04:50PM 27.8469 -85.1197 286° West 416 479 36,000  Level Jacksonville Center
04:51PM 27.8781 -85.2403 286° West 392 451 36,000  Level Jacksonville Center
04:52PM 27.9156 -85.3631 289° West 406 467 36,000  Level Jacksonville Center
04:53PM 27.9528 -85.4861 289° West 435 501 36,000  Level Jacksonville Center
04:54PM 27.9900 -85.6069 289° West 424 488 36,000  Level Jacksonville Center
04:55PM 28.0247 -85.7325 287° West 430 495 36,000  Level Jacksonville Center
04:56PM 28.0639 -85.8489 291° West 418 481 36,000  Level Jacksonville Center
04:57PM 28.0964 -85.9675 287° West 419 482 36,000  Level Jacksonville Center
04:58PM 28.1353 -86.0933 289° West 425 489 36,000  Level Jacksonville Center
04:59PM 28.1717 -86.2144 289° West 418 481 36,000  Level Jacksonville Center
05:00PM 28.2061 -86.3311 289° West 415 478 36,000  Level Jacksonville Center
05:01PM 28.2425 -86.4525 289° West 428 493 36,000  Level Jacksonville Center
05:02PM 28.2767 -86.5714 288° West 412 474 36,000  Level Jacksonville Center
05:03PM 28.3108 -86.6928 288° West 397 457 36,000  Level Jacksonville Center
05:04PM 28.3469 -86.8122 289° West 407 468 36,000  Level Jacksonville Center
05:05PM 28.3828 -86.9339 289° West 419 482 36,000  Level Jacksonville Center
05:06PM 28.4183 -87.0556 288° West 400 460 36,000  Level Jacksonville Center
05:07PM 28.4500 -87.1750 287° West 395 455 36,000  Level Jacksonville Center
05:08PM 28.4936 -87.3044 291° West 400 460 36,000  Level Jacksonville Center
05:09PM 28.5250 -87.4192 287° West 407 468 36,000  Level Jacksonville Center
05:10PM 28.5444 -87.4942 286° West 402 463 36,000  Level Houston Center
05:11PM 28.5767 -87.6069 288° West 405 466 36,000  Level Houston Center
05:12PM 28.6103 -87.7275 288° West 403 464 36,000  Level Houston Center
05:13PM 28.6450 -87.8492 288° West 405 466 36,000  Level Houston Center
05:14PM 28.6864 -87.9936 288° West 402 463 36,000  Level Houston Center
05:15PM 28.7233 -88.1233 288° West 403 464 36,000  Level Houston Center
05:16PM 28.7569 -88.2447 288° West 403 464 36,000  Level Houston Center
05:17PM 28.7900 -88.3658 287° West 400 460 36,000  Level Houston Center
05:18PM 28.8236 -88.4872 288° West 401 461 36,000  Level Houston Center
05:19PM 28.8572 -88.6083 288° West 402 463 36,000  Level Houston Center
05:20PM 28.9033 -88.7261 294° West 409 471 36,000  Level Houston Center
05:21PM 28.9747 -88.8583 302° West 409 471 36,000  Level Houston Center
05:22PM 29.0314 -88.9681 301° West 404 465 36,000  Level Houston Center
05:23PM 29.0892 -89.0806 300° West 408 470 36,000  Level Houston Center
05:24PM 29.1467 -89.1894 301° West 403 464 36,000  Level Houston Center
05:25PM 29.2047 -89.3014 301° West 405 466 36,000  Level Houston Center
05:26PM 29.2656 -89.4094 303° West 405 466 36,000  Level Houston Center
05:27PM 29.3519 -89.5314 309° West 409 471 36,000  Level Houston Center
05:28PM 29.4231 -89.6353 308° West 413 475 36,000  Level Houston Center
05:29PM 29.4953 -89.7375 309° West 412 474 36,000  Level Houston Center
05:30PM 29.5658 -89.8419 308° West 413 475 36,000  Level Houston Center
05:31PM 29.6383 -89.9444 309° West 412 474 36,000  Level Houston Center
05:32PM 29.7103 -90.0478 309° West 413 475 36,000 240 Level Houston Center
05:33PM 29.7947 -90.1706 308° West 408 470 36,500 600 Climbing Houston Center
05:34PM 29.8633 -90.2714 308° West 402 463 37,300 720 Climbing Houston Center
05:36PM 29.9311 -90.3694 309° West 393 452 38,000 300 Climbing Houston Center
05:37PM 29.9986 -90.4681 308° West 391 450 38,000 -60 Level Houston Center
05:38PM 30.0686 -90.5678 309° West 396 456 37,900  Descending Houston Center
05:39PM 30.1358 -90.6683 308° West 395 455 38,000  Climbing Houston Center
05:40PM 30.2039 -90.7675 308° West 393 452 38,000  Level Houston Center
05:41PM 30.2844 -90.8861 308° West 391 450 38,000  Level Houston Center
05:42PM 30.3511 -90.9839 308° West 387 445 38,000  Level Houston Center
05:43PM 30.4161 -91.0831 307° West 387 445 38,000  Level Houston Center
05:44PM 30.4831 -91.1797 309° West 386 444 38,000  Level Houston Center
05:45PM 30.5506 -91.2783 308° West 388 447 38,000  Level Houston Center
05:46PM 30.6158 -91.3761 308° West 386 444 38,000  Level Houston Center
05:47PM 30.6889 -91.4869 307° West 387 445 38,000  Level Houston Center
05:48PM 30.7558 -91.5861 308° West 389 448 38,000  Level Houston Center
05:49PM 30.8217 -91.6853 308° West 390 449 38,000  Level Houston Center
05:50PM 30.9000 -91.8050 307° West 388 447 38,000  Level Houston Center
05:51PM 30.9658 -91.9028 308° West 385 443 38,000  Level Houston Center
05:52PM 31.0311 -92.0022 307° West 386 444 38,000  Level Houston Center
05:53PM 31.0906 -92.0942 307° West 379 436 38,000  Level Houston Center
05:54PM 31.1678 -92.2108 308° West 379 436 38,000  Level Houston Center
05:55PM 31.2322 -92.3103 307° West 382 440 38,000  Level Houston Center
05:56PM 31.2964 -92.4075 308° West 381 438 38,000  Level Houston Center
05:57PM 31.3608 -92.5078 307° West 385 443 38,000  Level Houston Center
05:58PM 31.4272 -92.6083 308° West 388 447 38,000  Level Houston Center
05:59PM 31.5058 -92.7294 307° West 389 448 38,000  Level Houston Center
06:00PM 31.5700 -92.8297 307° West 387 445 38,000  Level Houston Center
06:01PM 31.6347 -92.9303 307° West 387 445 38,000  Level Houston Center
06:02PM 31.6978 -93.0286 307° West 381 438 38,000  Level Houston Center
06:03PM 31.7622 -93.1286 307° West 382 440 38,000  Level Houston Center
06:05PM 31.8375 -93.2469 307° West 383 441 38,000  Level Houston Center
06:06PM 31.9000 -93.3461 307° West 379 436 38,000  Level Houston Center
06:07PM 31.9644 -93.4464 307° West 384 442 38,000  Level Houston Center
06:08PM 32.0272 -93.5456 307° West 379 436 38,000  Level Houston Center
06:09PM 32.0986 -93.6586 307° West 382 440 38,000  Level Houston Center
06:10PM 32.1608 -93.7569 307° West 378 435 38,000  Level Houston Center
06:11PM 32.2239 -93.8572 307° West 380 437 38,000  Level Houston Center
06:12PM 32.2861 -93.9569 306° West 380 437 38,000  Level Houston Center
06:13PM 32.3611 -94.0758 307° West 379 436 38,000  Level Fort Worth Center
06:14PM 32.4222 -94.1772 306° West 379 436 38,000  Level Fort Worth Center
06:15PM 32.4853 -94.2758 307° West 379 436 38,000  Level Fort Worth Center
06:16PM 32.5464 -94.3797 305° West 379 436 38,000  Level Fort Worth Center
06:17PM 32.6072 -94.4764 307° West 379 436 38,000  Level Fort Worth Center
06:18PM 32.6681 -94.5803 305° West 379 436 38,000  Level Fort Worth Center
06:19PM 32.7306 -94.6772 307° West 379 436 38,000  Level Fort Worth Center
06:20PM 32.7933 -94.7814 306° West 379 436 38,000  Level Fort Worth Center
06:21PM 32.8539 -94.8811 306° West 379 436 38,000  Level Fort Worth Center
06:22PM 32.9144 -94.9833 305° West 379 436 38,000  Level Fort Worth Center
06:23PM 32.9767 -95.0856 306° West 379 436 38,000  Level Fort Worth Center
06:24PM 33.0392 -95.1881 306° West 379 436 38,000  Level Fort Worth Center
06:25PM 33.0886 -95.2686 306° West 379 436 38,000  Level Fort Worth Center
06:26PM 33.1572 -95.3836 305° West 379 436 38,000  Level Fort Worth Center
06:27PM 33.2194 -95.4842 307° West 379 436 38,000  Level Fort Worth Center
06:28PM 33.2814 -95.5869 306° West 379 436 38,000  Level Fort Worth Center
06:29PM 33.3414 -95.6903 305° West 379 436 38,000  Level Fort Worth Center
06:30PM 33.4033 -95.7936 306° West 379 436 38,000  Level Fort Worth Center
06:31PM 33.4653 -95.9019 304° West 379 436 38,000  Level Fort Worth Center
06:32PM 33.5331 -96.0031 309° West 379 436 38,000  Level Fort Worth Center
06:33PM 33.5969 -96.1092 306° West 384 442 38,000  Level Fort Worth Center
06:34PM 33.6583 -96.2106 306° West 384 442 38,000  Level Fort Worth Center
06:35PM 33.7178 -96.3147 304° West 384 442 38,000  Level Fort Worth Center
06:36PM 33.7814 -96.4214 306° West 384 442 38,000  Level Fort Worth Center
06:37PM 33.8406 -96.5233 305° West 384 442 38,000  Level Fort Worth Center
06:38PM 33.9017 -96.6303 305° West 384 442 38,000  Level Fort Worth Center
06:39PM 33.9650 -96.7347 306° West 384 442 38,000  Level Fort Worth Center
06:40PM 34.0258 -96.8397 305° West 384 442 38,000  Level Fort Worth Center
06:41PM 34.0869 -96.9444 305° West 384 442 38,000  Level Fort Worth Center
06:42PM 34.1478 -97.0672 301° West 384 442 38,000  Level Fort Worth Center
06:43PM 34.2086 -97.1750 304° West 384 442 38,000  Level Fort Worth Center
06:44PM 34.2775 -97.2778 309° West 395 455 38,000  Level Fort Worth Center
06:45PM 34.3486 -97.3783 311° West 400 460 38,000  Level Fort Worth Center
06:46PM 34.4175 -97.4814 309° West 395 455 38,000  Level Fort Worth Center
06:47PM 34.4861 -97.5872 308° West 395 455 38,000  Level Fort Worth Center
06:48PM 34.5569 -97.6908 310° West 395 455 38,000  Level Fort Worth Center
06:49PM 34.6297 -97.7972 310° West 400 460 38,000  Level Fort Worth Center
06:50PM 34.6981 -97.9061 307° West 400 460 38,000  Level Fort Worth Center
06:51PM 34.7686 -98.0075 310° West 400 460 38,000  Level Fort Worth Center
06:52PM 34.8411 -98.1169 309° West 400 460 38,000  Level Fort Worth Center
06:53PM 34.9133 -98.2239 309° West 400 460 38,000  Level Fort Worth Center
06:54PM 34.9836 -98.3308 309° West 400 460 38,000  Level Fort Worth Center
06:55PM 35.0536 -98.4381 309° West 400 460 38,000  Level Fort Worth Center
06:56PM 35.1136 -98.5200 312° West 400 460 38,000  Level Fort Worth Center
06:57PM 35.1917 -98.6381 309° West 400 460 38,000  Level Fort Worth Center
06:58PM 35.2614 -98.7508 307° West 406 467 38,000  Level Fort Worth Center
06:59PM 35.3311 -98.8564 309° West 411 473 38,000  Level Fort Worth Center
07:00PM 35.4006 -98.9669 308° West 411 473 38,000  Level Fort Worth Center
07:02PM 35.5250 -99.1608 308° West 405 466 38,000  Level Kansas City Center
07:03PM 35.5944 -99.2697 308° West 402 463 38,000  Level Kansas City Center
07:04PM 35.6639 -99.3792 308° West 402 463 38,000  Level Kansas City Center
07:05PM 35.7361 -99.4875 309° West 403 464 38,000  Level Kansas City Center
07:06PM 35.8403 -99.6017 318° Northwest 411 473 38,000  Level Kansas City Center
07:07PM 35.9267 -99.6969 318° Northwest 412 474 38,000  Level Kansas City Center
07:08PM 36.0119 -99.7928 318° Northwest 411 473 38,000  Level Kansas City Center
07:09PM 36.0964 -99.8875 318° Northwest 408 470 38,000  Level Kansas City Center
07:10PM 36.1806 -99.9831 318° Northwest 408 470 38,000  Level Kansas City Center
07:11PM 36.2667 -100.0767 319° Northwest 409 471 38,000  Level Kansas City Center
07:12PM 36.3497 -100.1717 317° Northwest 406 467 38,000  Level Kansas City Center
07:13PM 36.4331 -100.2647 318° Northwest 402 463 38,000  Level Kansas City Center
07:14PM 36.5333 -100.3794 317° Northwest 405 466 38,000  Level Kansas City Center
07:15PM 36.6183 -100.4767 317° Northwest 406 467 38,000  Level Kansas City Center
07:16PM 36.6981 -100.5686 317° Northwest 406 467 38,000  Level Kansas City Center
07:17PM 36.7911 -100.6744 318° Northwest 405 466 38,000  Level Kansas City Center
07:18PM 36.8692 -100.7675 316° Northwest 404 465 38,000  Level Kansas City Center
07:19PM 36.9497 -100.8592 318° Northwest 407 468 38,100  Climbing Kansas City Center
07:20PM 37.0417 -100.9653 317° Northwest 403 464 38,000 -60 Descending Kansas City Center
07:21PM 37.1117 -101.0656 311° West 399 459 38,000  Level Kansas City Center
07:22PM 37.1911 -101.1831 310° West 395 455 38,000  Level Kansas City Center
07:23PM 37.2600 -101.2842 311° West 395 455 38,000  Level Kansas City Center
07:24PM 37.3417 -101.4028 311° West 398 458 38,000  Level Kansas City Center
07:25PM 37.4108 -101.5064 310° West 401 461 38,000  Level Kansas City Center
07:26PM 37.4928 -101.6269 311° West 404 465 38,000  Level Kansas City Center
07:28PM 37.5631 -101.7314 310° West 406 467 38,000  Level Kansas City Center
07:29PM 37.6339 -101.8361 311° West 407 468 38,000  Level Kansas City Center
07:30PM 37.7153 -101.9594 310° West 409 471 38,000  Level Kansas City Center
07:31PM 37.7822 -102.0656 309° West 404 465 38,000  Level Kansas City Center
07:32PM 37.8614 -102.1897 309° West 405 466 38,000  Level Kansas City Center
07:33PM 37.9281 -102.2950 309° West 402 463 38,000 -300 Level Kansas City Center
07:34PM 38.0156 -102.4381 308° West 399 459 37,400 -540 Descending Denver Center
07:35PM 38.0925 -102.5611 308° West 397 457 36,800 -540 Descending Denver Center
07:36PM 38.1569 -102.6653 308° West 393 452 36,300 -780 Descending Denver Center
07:37PM 38.2319 -102.7889 308° West 395 455 35,300 -1,020 Descending Denver Center
07:38PM 38.2983 -102.8936 309° West 397 457 34,200 -1,080 Descending Denver Center
07:39PM 38.3636 -103.0017 308° West 401 461 33,100 -1,320 Descending Denver Center
07:40PM 38.4394 -103.1253 308° West 396 456 31,500 -1,440 Descending Denver Center
07:41PM 38.5011 -103.2269 308° West 380 437 30,100 -1,500 Descending Denver Center
07:42PM 38.5717 -103.3408 308° West 367 422 28,400 -1,500 Descending Denver Center
07:43PM 38.6419 -103.4550 308° West 384 442 27,100 -1,260 Descending Denver Center
07:44PM 38.7053 -103.5608 308° West 381 438 25,900 -1,500 Descending Denver Center
07:45PM 38.7633 -103.6581 307° West 362 417 24,100 -1,860 Descending Denver Center
07:46PM 38.8283 -103.7636 308° West 342 394 22,100 -1,800 Descending Denver Center
07:47PM 38.8794 -103.8503 307° West 329 379 20,500 -1,620 Descending Denver Center
07:48PM 38.9342 -103.9400 308° West 321 369 18,800 -1,860 Descending Denver Center
07:49PM 38.9694 -103.9944 310° West 306 352 17,700 -1,980 Descending Denver Center
07:49PM 38.9950 -104.0436 304° West 307 353 16,800 -1,140 Descending Denver Center
07:50PM 39.0328 -104.1319 299° West 282 325 16,000 -420 Descending Denver Center
07:52PM 39.0539 -104.2247 286° West 280 322 16,000 -120 Level Denver Center
07:53PM 39.0778 -104.3381 285° West 290 334 15,800 -600 Descending Denver Center
07:54PM 39.0953 -104.4361 283° West 293 337 14,800 -1,020 Descending Denver Center
07:55PM 39.1328 -104.5344 296° West 272 313 13,700 -1,020 Descending Denver Center
07:56PM 39.1669 -104.6142 299° West 256 295 12,700 -1,020 Descending Denver Center
07:57PM 39.2019 -104.6911 300° West 252 290 11,700 -1,020 Descending Denver Center
07:58PM 39.2508 -104.7603 312° West 255 293 10,700 -1,020 Descending Denver Center
07:59PM 39.3214 -104.7742 351° North 257 296 9,600 -840 Descending Denver Center
08:00PM 39.3953 -104.7753 359° North 245 282 9,000 -480 Descending Denver Center
08:01PM 39.4594 -104.7708 North 233 268 8,700 -480 Descending Denver Center
08:02PM 39.5317 -104.7703 360° North 241 277 8,100 -420 Descending Denver Center
08:03PM 39.5928 -104.7711 359° North 220 253 7,900 -300 Descending Denver Center
08:04PM 39.6442 -104.7897 344° North 218 251 7,500 -600 Descending Denver Center
08:05PM 39.6317 -104.8453 254° West 155 178 6,700 -780 Descending Denver Center
08:06PM 39.5933 -104.8528 189° South 139 160 6,000 -720 Descending Denver Center
08:08PM 39.5667 -104.8333 129° Southeast  Level FlightAware Approximate
08:15PM 39.5701 -104.8493 129° Southeast  Level Estimated
08:16PM 39.5701 -104.8493 129° Southeast  Level Estimated
08:17PM 39.5701 -104.8493 129° Southeast  Level Estimated
08:18PM 39.5701 -104.8493 129° Southeast  Level Estimated
08:19PM 39.5701 -104.8493 129° Southeast  Level Estimated
08:20PM 39.5701 -104.8493 129° Southeast  Level Estimated
08:21PM 39.5701 -104.8493 129° Southeast  Level Estimated
08:22PM 39.5701 -104.8493 129° Southeast  Level Estimated
08:23PM 39.5701 -104.8493 129° Southeast  Level Estimated
08:24PM 39.5701 -104.8493 129° Southeast  Level Estimated
08:25PM 39.5701 -104.8493 129° Southeast  Level Estimated
08:26PM 39.5701 -104.8493 129° Southeast  Level Estimated
08:27PM 39.5701 -104.8493 129° Southeast  Level Estimated
08:28PM 39.5701 -104.8493 129° Southeast  Level Estimated